createdAt,value
2018-07-30T00:00:22.402Z,24.30
2018-07-30T00:02:49.206Z,23.90
2018-07-30T00:05:16.113Z,24.30
2018-07-30T00:07:42.914Z,24.30
2018-07-30T00:10:09.708Z,24.20
2018-07-30T00:12:37.177Z,24.20
2018-07-30T00:15:04.101Z,24.20
2018-07-30T00:17:30.868Z,24.20
2018-07-30T00:19:57.564Z,24.20
2018-07-30T00:22:24.330Z,24.20
2018-07-30T00:24:51.201Z,24.20
2018-07-30T00:27:17.972Z,24.20
2018-07-30T00:29:44.815Z,24.20
2018-07-30T00:32:11.606Z,24.20
2018-07-30T00:34:38.476Z,24.10
2018-07-30T00:37:05.306Z,24.10
2018-07-30T00:39:32.208Z,24.10
2018-07-30T00:41:59.123Z,24.10
2018-07-30T00:44:26.030Z,24.10
2018-07-30T00:46:52.747Z,24.10
2018-07-30T00:49:19.564Z,24.10
2018-07-30T00:51:46.376Z,24.10
2018-07-30T00:54:13.123Z,24.00
2018-07-30T00:56:39.891Z,24.00
2018-07-30T00:59:06.588Z,24.00
2018-07-30T01:01:33.297Z,24.00
2018-07-30T01:03:59.995Z,24.00
2018-07-30T01:06:26.705Z,23.90
2018-07-30T01:08:53.381Z,23.90
2018-07-30T01:11:20.071Z,23.90
2018-07-30T01:13:46.797Z,23.90
2018-07-30T01:16:13.484Z,23.90
2018-07-30T01:18:40.265Z,23.90
2018-07-30T01:21:07.097Z,23.90
2018-07-30T01:23:33.911Z,23.90
2018-07-30T01:26:05.969Z,23.80
2018-07-30T01:28:32.813Z,23.80
2018-07-30T01:30:59.731Z,23.80
2018-07-30T01:33:26.600Z,23.80
2018-07-30T01:35:53.287Z,23.80
2018-07-30T01:38:20.079Z,23.80
2018-07-30T01:40:46.923Z,23.80
2018-07-30T01:43:13.723Z,23.80
2018-07-30T01:45:40.486Z,23.70
2018-07-30T01:48:07.446Z,23.70
2018-07-30T01:50:34.471Z,23.70
2018-07-30T01:53:01.403Z,23.70
2018-07-30T01:55:28.175Z,23.70
2018-07-30T01:57:54.967Z,23.70
2018-07-30T02:00:21.771Z,23.60
2018-07-30T02:02:48.483Z,23.60
2018-07-30T02:05:15.235Z,23.60
2018-07-30T02:07:42.438Z,23.60
2018-07-30T02:10:10.421Z,23.60
2018-07-30T02:12:37.208Z,23.60
2018-07-30T02:15:04.078Z,23.60
2018-07-30T02:17:30.966Z,23.60
2018-07-30T02:19:57.828Z,23.60
2018-07-30T02:22:24.536Z,23.50
2018-07-30T02:24:51.492Z,23.60
2018-07-30T02:27:18.445Z,23.50
2018-07-30T02:29:45.278Z,23.50
2018-07-30T02:32:12.179Z,23.50
2018-07-30T02:34:39.021Z,23.50
2018-07-30T02:37:05.850Z,23.50
2018-07-30T02:39:32.565Z,23.50
2018-07-30T02:41:59.329Z,23.50
2018-07-30T02:44:26.102Z,23.50
2018-07-30T02:46:52.823Z,23.50
2018-07-30T02:49:19.634Z,23.40
2018-07-30T02:51:46.458Z,23.40
2018-07-30T02:54:13.189Z,23.40
2018-07-30T02:56:40.008Z,23.40
2018-07-30T02:59:06.904Z,23.40
2018-07-30T03:01:33.759Z,23.40
2018-07-30T03:04:00.532Z,23.10
2018-07-30T03:06:27.292Z,23.40
2018-07-30T03:08:54.092Z,23.40
2018-07-30T03:11:20.985Z,23.40
2018-07-30T03:13:47.698Z,23.40
2018-07-30T03:16:14.524Z,23.40
2018-07-30T03:18:41.292Z,23.30
2018-07-30T03:21:08.032Z,23.30
2018-07-30T03:23:34.776Z,23.30
2018-07-30T03:26:01.554Z,23.30
2018-07-30T03:28:28.318Z,23.30
2018-07-30T03:30:55.080Z,23.30
2018-07-30T03:33:21.872Z,23.30
2018-07-30T03:35:48.734Z,23.30
2018-07-30T03:38:15.540Z,23.30
2018-07-30T03:40:42.312Z,23.30
2018-07-30T03:43:09.112Z,23.30
2018-07-30T03:45:35.907Z,23.40
2018-07-30T03:48:02.800Z,23.20
2018-07-30T03:50:29.709Z,23.20
2018-07-30T03:52:56.820Z,23.20
2018-07-30T03:55:23.941Z,23.20
2018-07-30T03:57:50.782Z,23.20
2018-07-30T04:00:17.602Z,23.20
2018-07-30T04:02:44.441Z,23.20
2018-07-30T04:05:11.523Z,23.20
2018-07-30T04:07:38.493Z,23.20
2018-07-30T04:10:05.503Z,23.20
2018-07-30T04:12:32.594Z,23.20
2018-07-30T04:14:59.555Z,23.20
2018-07-30T04:17:26.589Z,23.20
2018-07-30T04:19:53.851Z,23.10
2018-07-30T04:22:20.741Z,23.10
2018-07-30T04:24:47.523Z,23.10
2018-07-30T04:27:14.433Z,23.10
2018-07-30T04:29:41.294Z,23.10
2018-07-30T04:32:08.076Z,23.10
2018-07-30T04:34:34.929Z,23.10
2018-07-30T04:37:01.931Z,23.10
2018-07-30T04:39:28.661Z,23.10
2018-07-30T04:41:55.462Z,23.10
2018-07-30T04:44:22.302Z,23.10
2018-07-30T04:46:49.120Z,23.10
2018-07-30T04:49:16.039Z,23.10
2018-07-30T04:51:43.168Z,23.10
2018-07-30T04:54:09.890Z,23.10
2018-07-30T04:56:36.632Z,23.10
2018-07-30T04:59:03.652Z,23.00
2018-07-30T05:01:30.836Z,23.10
2018-07-30T05:03:57.647Z,23.00
2018-07-30T05:06:24.429Z,23.00
2018-07-30T05:08:51.236Z,23.00
2018-07-30T05:11:18.073Z,23.00
2018-07-30T05:13:44.891Z,23.00
2018-07-30T05:16:11.622Z,23.00
2018-07-30T05:18:38.547Z,23.00
2018-07-30T05:21:05.300Z,23.00
2018-07-30T05:23:32.381Z,23.00
2018-07-30T05:25:59.285Z,23.00
2018-07-30T05:28:26.324Z,23.00
2018-07-30T05:30:53.330Z,23.00
2018-07-30T05:33:20.210Z,23.00
2018-07-30T05:35:47.122Z,23.00
2018-07-30T05:38:13.956Z,23.00
2018-07-30T05:40:40.814Z,23.00
2018-07-30T05:43:07.734Z,23.00
2018-07-30T05:45:34.530Z,23.00
2018-07-30T05:48:01.349Z,23.00
2018-07-30T05:50:28.400Z,23.00
2018-07-30T05:52:55.468Z,23.00
2018-07-30T05:55:22.508Z,23.00
2018-07-30T05:57:49.322Z,23.00
2018-07-30T06:00:16.413Z,23.00
2018-07-30T06:02:43.337Z,23.00
2018-07-30T06:05:10.730Z,23.00
2018-07-30T06:07:37.551Z,23.10
2018-07-30T06:10:04.488Z,23.10
2018-07-30T06:12:31.429Z,23.10
2018-07-30T06:14:58.511Z,23.10
2018-07-30T06:17:25.417Z,23.20
2018-07-30T06:19:52.621Z,23.20
2018-07-30T06:22:19.732Z,23.20
2018-07-30T06:24:46.577Z,23.30
2018-07-30T06:27:13.509Z,23.10
2018-07-30T06:29:40.404Z,23.30
2018-07-30T06:32:07.179Z,23.40
2018-07-30T06:34:34.135Z,23.40
2018-07-30T06:37:01.089Z,23.40
2018-07-30T06:39:28.150Z,23.50
2018-07-30T06:41:54.954Z,23.50
2018-07-30T06:44:22.123Z,23.50
2018-07-30T06:46:49.056Z,23.40
2018-07-30T06:49:16.241Z,23.60
2018-07-30T06:51:43.098Z,23.60
2018-07-30T06:54:09.959Z,23.70
2018-07-30T06:56:36.981Z,23.70
2018-07-30T06:59:03.844Z,23.70
2018-07-30T07:01:30.780Z,23.80
2018-07-30T07:03:57.691Z,23.80
2018-07-30T07:06:24.563Z,23.80
2018-07-30T07:08:51.715Z,23.90
2018-07-30T07:11:18.527Z,23.90
2018-07-30T07:13:45.343Z,23.90
2018-07-30T07:16:12.202Z,23.90
2018-07-30T07:18:39.047Z,24.00
2018-07-30T07:21:05.939Z,24.00
2018-07-30T07:23:32.950Z,24.10
2018-07-30T07:25:59.821Z,24.10
2018-07-30T07:28:26.647Z,24.10
2018-07-30T07:30:53.552Z,24.20
2018-07-30T07:33:20.377Z,24.20
2018-07-30T07:35:47.193Z,24.20
2018-07-30T07:38:14.118Z,24.30
2018-07-30T07:40:41.089Z,24.30
2018-07-30T07:43:07.906Z,24.30
2018-07-30T07:45:34.744Z,24.40
2018-07-30T07:48:01.570Z,24.40
2018-07-30T07:50:28.454Z,24.40
2018-07-30T07:52:55.227Z,24.50
2018-07-30T07:55:22.068Z,24.50
2018-07-30T07:57:48.854Z,24.60
2018-07-30T08:00:15.660Z,24.60
2018-07-30T08:02:42.465Z,24.60
2018-07-30T08:05:09.278Z,24.70
2018-07-30T08:07:37.104Z,24.70
2018-07-30T08:10:03.917Z,24.80
2018-07-30T08:12:30.923Z,24.80
2018-07-30T08:14:57.702Z,24.80
2018-07-30T08:17:24.578Z,24.80
2018-07-30T08:19:51.501Z,24.90
2018-07-30T08:22:18.412Z,25.00
2018-07-30T08:24:45.272Z,25.00
2018-07-30T08:27:12.067Z,25.00
2018-07-30T08:29:38.879Z,25.10
2018-07-30T08:32:05.795Z,25.10
2018-07-30T08:34:32.688Z,25.20
2018-07-30T08:36:59.439Z,25.20
2018-07-30T08:39:26.277Z,25.20
2018-07-30T08:41:53.086Z,25.30
2018-07-30T08:44:19.927Z,25.30
2018-07-30T08:46:46.856Z,25.40
2018-07-30T08:49:13.626Z,25.40
2018-07-30T08:51:40.522Z,25.50
2018-07-30T08:54:07.368Z,25.50
2018-07-30T08:56:34.267Z,25.50
2018-07-30T08:59:01.110Z,25.60
2018-07-30T09:01:27.857Z,25.60
2018-07-30T09:03:54.758Z,25.60
2018-07-30T09:06:21.672Z,25.70
2018-07-30T09:08:48.542Z,25.70
2018-07-30T09:11:15.448Z,25.80
2018-07-30T09:13:42.226Z,25.80
2018-07-30T09:16:09.015Z,25.90
2018-07-30T09:18:35.812Z,25.90
2018-07-30T09:21:02.712Z,26.00
2018-07-30T09:23:29.464Z,26.00
2018-07-30T09:25:56.190Z,26.00
2018-07-30T09:28:23.084Z,26.10
2018-07-30T09:30:49.918Z,26.10
2018-07-30T09:33:16.979Z,26.20
2018-07-30T09:35:43.950Z,26.20
2018-07-30T09:38:10.778Z,26.30
2018-07-30T09:40:37.582Z,26.30
2018-07-30T09:43:04.345Z,26.40
2018-07-30T09:45:31.108Z,26.40
2018-07-30T09:47:57.969Z,26.40
2018-07-30T09:50:25.043Z,26.50
2018-07-30T09:52:52.050Z,26.50
2018-07-30T09:55:18.989Z,26.30
2018-07-30T09:57:45.829Z,26.60
2018-07-30T10:00:12.795Z,26.70
2018-07-30T10:02:39.617Z,26.70
2018-07-30T10:05:06.393Z,26.80
2018-07-30T10:07:33.317Z,26.80
2018-07-30T10:10:00.112Z,26.80
2018-07-30T10:12:27.060Z,26.90
2018-07-30T10:14:53.956Z,26.90
2018-07-30T10:17:20.858Z,27.00
2018-07-30T10:19:47.728Z,27.00
2018-07-30T10:22:14.697Z,27.00
2018-07-30T10:24:41.695Z,27.10
2018-07-30T10:27:08.595Z,27.10
2018-07-30T10:29:35.563Z,27.20
2018-07-30T10:32:02.597Z,27.20
2018-07-30T10:34:29.635Z,27.20
2018-07-30T10:36:56.535Z,27.30
2018-07-30T10:39:23.933Z,27.30
2018-07-30T10:41:51.097Z,27.30
2018-07-30T10:44:18.024Z,27.40
2018-07-30T10:46:44.863Z,27.40
2018-07-30T10:49:11.644Z,27.40
2018-07-30T10:51:38.375Z,27.50
2018-07-30T10:54:05.092Z,27.50
2018-07-30T10:56:31.868Z,27.50
2018-07-30T10:58:58.629Z,27.60
2018-07-30T11:01:25.375Z,27.60
2018-07-30T11:03:52.193Z,27.70
2018-07-30T11:06:18.992Z,27.70
2018-07-30T11:08:45.851Z,27.80
2018-07-30T11:11:12.610Z,27.80
2018-07-30T11:13:39.344Z,27.80
2018-07-30T11:16:06.354Z,27.90
2018-07-30T11:18:33.234Z,27.90
2018-07-30T11:21:00.132Z,27.90
2018-07-30T11:23:26.916Z,28.00
2018-07-30T11:25:53.792Z,28.00
2018-07-30T11:28:20.554Z,28.00
2018-07-30T11:30:47.349Z,28.10
2018-07-30T11:33:14.254Z,28.10
2018-07-30T11:35:41.085Z,28.20
2018-07-30T11:38:07.930Z,28.20
2018-07-30T11:40:34.671Z,28.20
2018-07-30T11:43:01.519Z,28.20
2018-07-30T11:45:28.297Z,28.30
2018-07-30T11:47:54.999Z,28.30
2018-07-30T11:50:21.817Z,28.40
2018-07-30T11:52:48.563Z,28.40
2018-07-30T11:55:15.373Z,28.40
2018-07-30T11:57:42.324Z,28.50
2018-07-30T12:00:09.084Z,28.50
2018-07-30T12:02:35.917Z,28.50
2018-07-30T12:05:02.747Z,28.60
2018-07-30T12:07:29.470Z,28.60
2018-07-30T12:09:56.182Z,28.60
2018-07-30T12:12:23.004Z,28.60
2018-07-30T12:14:49.783Z,28.70
2018-07-30T12:17:16.544Z,28.70
2018-07-30T12:19:43.363Z,28.60
2018-07-30T12:22:10.127Z,28.80
2018-07-30T12:24:36.892Z,28.80
2018-07-30T12:27:03.682Z,28.80
2018-07-30T12:29:30.405Z,28.80
2018-07-30T12:31:57.074Z,28.80
2018-07-30T12:34:23.766Z,28.90
2018-07-30T12:36:50.500Z,28.90
2018-07-30T12:39:17.321Z,28.90
2018-07-30T12:41:44.059Z,28.90
2018-07-30T12:44:10.832Z,28.90
2018-07-30T12:46:37.651Z,29.00
2018-07-30T12:49:04.786Z,29.00
2018-07-30T12:51:31.681Z,29.00
2018-07-30T12:53:58.530Z,29.00
2018-07-30T12:56:25.286Z,29.00
2018-07-30T12:58:52.115Z,29.00
2018-07-30T13:01:19.025Z,29.10
2018-07-30T13:03:45.854Z,29.10
2018-07-30T13:06:12.802Z,29.10
2018-07-30T13:08:39.643Z,29.00
2018-07-30T13:11:06.456Z,29.10
2018-07-30T13:13:33.179Z,29.10
2018-07-30T13:16:00.161Z,29.20
2018-07-30T13:18:27.070Z,29.20
2018-07-30T13:20:54.071Z,29.20
2018-07-30T13:23:20.912Z,29.20
2018-07-30T13:25:48.016Z,29.30
2018-07-30T13:28:14.873Z,29.30
2018-07-30T13:30:41.674Z,29.30
2018-07-30T13:33:08.424Z,29.30
2018-07-30T13:35:35.216Z,29.30
2018-07-30T13:38:02.127Z,29.40
2018-07-30T13:40:29.073Z,29.40
2018-07-30T13:42:56.009Z,29.40
2018-07-30T13:45:23.111Z,29.40
2018-07-30T13:47:50.003Z,29.40
2018-07-30T13:50:16.842Z,29.40
2018-07-30T13:52:43.744Z,29.50
2018-07-30T13:55:10.580Z,29.50
2018-07-30T13:57:37.438Z,29.50
2018-07-30T14:00:04.619Z,29.50
2018-07-30T14:02:31.536Z,29.60
2018-07-30T14:04:58.337Z,29.60
2018-07-30T14:07:25.126Z,29.60
2018-07-30T14:09:51.847Z,29.60
2018-07-30T14:12:18.607Z,29.60
2018-07-30T14:14:45.402Z,29.60
2018-07-30T14:17:12.233Z,29.70
2018-07-30T14:19:39.100Z,29.70
2018-07-30T14:22:06.053Z,29.70
2018-07-30T14:24:32.914Z,29.70
2018-07-30T14:26:59.731Z,29.70
2018-07-30T14:29:26.676Z,29.70
2018-07-30T14:31:53.476Z,29.70
2018-07-30T14:34:20.223Z,29.80
2018-07-30T14:36:47.130Z,29.70
2018-07-30T14:39:13.939Z,29.80
2018-07-30T14:41:40.965Z,29.70
2018-07-30T14:44:07.899Z,29.80
2018-07-30T14:46:34.970Z,29.80
2018-07-30T14:49:01.758Z,29.80
2018-07-30T14:51:28.885Z,29.80
2018-07-30T14:53:55.981Z,29.80
2018-07-30T14:56:22.982Z,29.80
2018-07-30T14:58:50.066Z,29.80
2018-07-30T15:03:49.343Z,29.80
2018-07-30T15:06:16.347Z,29.80
2018-07-30T15:08:43.197Z,29.80
2018-07-30T15:11:10.033Z,29.80
2018-07-30T15:13:37.247Z,29.80
2018-07-30T15:16:04.216Z,29.70
2018-07-30T15:18:31.086Z,29.70
2018-07-30T15:20:58.031Z,29.70
2018-07-30T15:23:25.028Z,29.70
2018-07-30T15:25:51.940Z,29.70
2018-07-30T15:28:18.732Z,29.60
2018-07-30T15:30:45.584Z,29.60
2018-07-30T15:33:12.567Z,29.60
2018-07-30T15:35:39.496Z,29.60
2018-07-30T15:38:06.748Z,29.60
2018-07-30T15:40:33.767Z,29.60
2018-07-30T15:43:00.724Z,29.60
2018-07-30T15:45:27.557Z,29.50
2018-07-30T15:47:54.674Z,29.60
2018-07-30T15:50:22.192Z,29.50
2018-07-30T15:52:49.145Z,29.50
2018-07-30T15:55:16.299Z,29.50
2018-07-30T15:57:43.180Z,29.40
2018-07-30T16:00:10.162Z,29.40
2018-07-30T16:02:37.008Z,29.40
2018-07-30T16:05:03.989Z,29.40
2018-07-30T16:07:30.803Z,29.40
2018-07-30T16:09:57.797Z,29.30
2018-07-30T16:12:24.548Z,29.30
2018-07-30T16:14:51.387Z,29.30
2018-07-30T16:17:18.210Z,29.30
2018-07-30T16:19:45.217Z,29.30
2018-07-30T16:22:12.121Z,29.30
2018-07-30T16:24:38.967Z,29.20
2018-07-30T16:27:05.811Z,29.20
2018-07-30T16:29:32.603Z,29.10
2018-07-30T16:31:59.365Z,29.10
2018-07-30T16:34:26.160Z,29.10
2018-07-30T16:36:53.115Z,29.00
2018-07-30T16:39:20.097Z,28.90
2018-07-30T16:41:46.935Z,28.80
2018-07-30T16:44:13.793Z,28.70
2018-07-30T16:46:40.639Z,28.90
2018-07-30T16:49:07.377Z,28.50
2018-07-30T16:51:34.256Z,28.40
2018-07-30T16:54:01.072Z,28.20
2018-07-30T16:56:27.862Z,28.10
2018-07-30T16:58:54.581Z,28.00
2018-07-30T17:01:21.458Z,27.80
2018-07-30T17:03:48.273Z,27.80
2018-07-30T17:06:15.441Z,27.60
2018-07-30T17:08:42.310Z,27.50
2018-07-30T17:11:09.075Z,27.40
2018-07-30T17:13:35.870Z,27.30
2018-07-30T17:16:02.577Z,27.20
2018-07-30T17:18:29.343Z,27.10
2018-07-30T17:20:56.148Z,27.00
2018-07-30T17:23:22.874Z,26.90
2018-07-30T17:25:49.629Z,26.80
2018-07-30T17:28:16.483Z,26.70
2018-07-30T17:30:43.286Z,26.60
2018-07-30T17:33:10.053Z,26.40
2018-07-30T17:35:36.913Z,26.30
2018-07-30T17:38:03.810Z,26.20
2018-07-30T17:40:30.669Z,26.10
2018-07-30T17:42:57.485Z,26.00
2018-07-30T17:45:24.255Z,25.90
2018-07-30T17:47:51.078Z,25.80
2018-07-30T17:50:17.790Z,25.70
2018-07-30T17:52:44.551Z,25.60
2018-07-30T17:55:11.303Z,25.50
2018-07-30T17:57:38.118Z,25.50
2018-07-30T18:00:04.991Z,25.40
2018-07-30T18:02:31.810Z,25.30
2018-07-30T18:04:58.853Z,25.20
2018-07-30T18:07:25.681Z,25.10
2018-07-30T18:09:52.476Z,25.10
2018-07-30T18:12:19.263Z,25.00
2018-07-30T18:14:46.094Z,24.90
2018-07-30T18:17:12.899Z,24.80
2018-07-30T18:19:39.659Z,24.80
2018-07-30T18:22:06.465Z,24.70
2018-07-30T18:24:33.348Z,24.60
2018-07-30T18:27:00.139Z,24.60
2018-07-30T18:29:26.923Z,24.50
2018-07-30T18:31:53.738Z,24.50
2018-07-30T18:34:20.569Z,24.50
2018-07-30T18:36:48.669Z,24.50
2018-07-30T18:39:15.473Z,24.50
2018-07-30T18:41:42.282Z,24.50
2018-07-30T18:44:09.027Z,24.50
2018-07-30T18:46:35.833Z,24.50
2018-07-30T18:49:02.543Z,24.50
2018-07-30T18:51:29.472Z,24.50
2018-07-30T18:53:56.232Z,24.50
2018-07-30T18:56:22.959Z,24.50
2018-07-30T18:58:49.821Z,24.50
2018-07-30T19:01:16.657Z,24.50
2018-07-30T19:03:43.418Z,24.50
2018-07-30T19:06:10.175Z,24.50
2018-07-30T19:08:36.958Z,24.50
2018-07-30T19:11:03.664Z,24.50
2018-07-30T19:13:30.463Z,24.50
2018-07-30T19:15:57.287Z,24.50
2018-07-30T19:18:24.092Z,24.50
2018-07-30T19:20:50.944Z,24.50
2018-07-30T19:23:17.826Z,24.50
2018-07-30T19:25:44.644Z,24.40
2018-07-30T19:28:11.439Z,24.40
2018-07-30T19:30:38.156Z,24.40
2018-07-30T19:33:04.903Z,24.40
2018-07-30T19:35:31.662Z,24.40
2018-07-30T19:37:58.496Z,24.40
2018-07-30T19:40:25.393Z,24.40
2018-07-30T19:42:52.212Z,24.40
2018-07-30T19:45:19.009Z,24.40
2018-07-30T19:47:45.764Z,24.40
2018-07-30T19:50:12.548Z,24.40
2018-07-30T19:52:39.331Z,24.40
2018-07-30T19:55:06.315Z,24.40
2018-07-30T19:57:33.210Z,24.40
2018-07-30T19:59:59.997Z,24.30
2018-07-30T20:02:26.783Z,24.30
2018-07-30T20:04:53.752Z,24.30
2018-07-30T20:07:20.625Z,24.30
2018-07-30T20:09:47.451Z,24.30
2018-07-30T20:12:14.303Z,24.30
2018-07-30T20:14:41.191Z,24.20
2018-07-30T20:17:08.147Z,24.20
2018-07-30T20:19:35.121Z,24.20
2018-07-30T20:22:01.883Z,24.20
2018-07-30T20:24:28.785Z,24.20
2018-07-30T20:26:55.577Z,24.20
2018-07-30T20:29:22.369Z,24.20
2018-07-30T20:31:49.226Z,24.00
2018-07-30T20:34:16.149Z,24.10
2018-07-30T20:36:42.988Z,24.10
2018-07-30T20:39:09.833Z,24.10
2018-07-30T20:41:36.645Z,24.10
2018-07-30T20:44:03.450Z,24.00
2018-07-30T20:46:30.447Z,24.00
2018-07-30T20:48:57.303Z,24.00
2018-07-30T20:51:24.124Z,24.00
2018-07-30T20:53:50.904Z,24.00
2018-07-30T20:56:17.660Z,23.90
2018-07-30T20:58:44.424Z,23.90
2018-07-30T21:01:11.280Z,23.90
2018-07-30T21:03:38.256Z,23.90
2018-07-30T21:06:05.055Z,23.90
2018-07-30T21:08:32.021Z,23.80
2018-07-30T21:10:58.756Z,23.80
2018-07-30T21:13:25.482Z,23.80
2018-07-30T21:15:52.302Z,23.80
2018-07-30T21:18:19.114Z,23.80
2018-07-30T21:20:45.910Z,23.70
2018-07-30T21:23:12.653Z,23.70
2018-07-30T21:25:39.441Z,23.70
2018-07-30T21:28:06.214Z,23.70
2018-07-30T21:30:32.948Z,23.60
2018-07-30T21:32:59.831Z,23.60
2018-07-30T21:35:26.564Z,23.60
2018-07-30T21:37:53.457Z,23.60
2018-07-30T21:40:20.229Z,23.50
2018-07-30T21:42:47.097Z,23.50
2018-07-30T21:45:13.867Z,23.50
2018-07-30T21:47:40.599Z,23.50
2018-07-30T21:50:07.438Z,23.50
2018-07-30T21:52:34.231Z,23.40
2018-07-30T21:55:01.067Z,23.40
2018-07-30T21:57:27.853Z,23.40
2018-07-30T21:59:54.633Z,23.40
2018-07-30T22:02:21.392Z,23.40
2018-07-30T22:04:48.203Z,23.30
2018-07-30T22:07:15.117Z,23.30
2018-07-30T22:09:41.849Z,23.30
2018-07-30T22:12:08.559Z,23.30
2018-07-30T22:14:35.367Z,23.20
2018-07-30T22:17:02.275Z,23.20
2018-07-30T22:19:28.999Z,23.20
2018-07-30T22:21:55.849Z,23.20
2018-07-30T22:24:22.601Z,23.20
2018-07-30T22:26:49.390Z,23.10
2018-07-30T22:29:16.293Z,23.10
2018-07-30T22:31:43.143Z,23.10
2018-07-30T22:34:10.035Z,23.10
2018-07-30T22:36:37.119Z,23.10
2018-07-30T22:39:04.269Z,23.00
2018-07-30T22:41:31.036Z,23.00
2018-07-30T22:43:57.887Z,23.00
2018-07-30T22:46:24.708Z,23.00
2018-07-30T22:48:51.472Z,23.00
2018-07-30T22:51:18.245Z,23.00
2018-07-30T22:53:45.114Z,22.90
2018-07-30T22:56:12.058Z,22.90
2018-07-30T22:58:38.922Z,22.90
2018-07-30T23:01:05.742Z,22.90
2018-07-30T23:03:32.476Z,22.90
2018-07-30T23:05:59.248Z,22.80
2018-07-30T23:08:26.018Z,22.80
2018-07-30T23:10:52.893Z,22.80
2018-07-30T23:13:19.765Z,22.80
2018-07-30T23:15:46.641Z,22.80
2018-07-30T23:18:13.373Z,22.70
2018-07-30T23:20:40.125Z,22.80
2018-07-30T23:23:06.917Z,22.70
2018-07-30T23:25:33.677Z,22.70
2018-07-30T23:28:00.469Z,22.70
2018-07-30T23:30:27.323Z,22.70
2018-07-30T23:32:54.047Z,22.70
2018-07-30T23:35:20.879Z,22.70
2018-07-30T23:37:47.845Z,22.60
2018-07-30T23:40:14.831Z,22.60
2018-07-30T23:42:41.629Z,22.60
2018-07-30T23:45:08.332Z,22.20
2018-07-30T23:47:35.205Z,22.50
2018-07-30T23:50:01.948Z,22.60
2018-07-30T23:52:28.691Z,22.60
2018-07-30T23:54:55.645Z,22.50
2018-07-30T23:57:22.387Z,22.50
2018-07-30T23:59:49.159Z,22.50
